sensor_id;sensor_type;location;lat;lon;timestamp;P1;durP1;ratioP1;P2;durP2;ratioP2
10902;SDS011;5504;47.312;11.060;2022-09-09T00:06:30;2.57;;;1.50;;
10902;SDS011;5504;47.312;11.060;2022-09-09T00:17:09;6.93;;;2.30;;
10902;SDS011;5504;47.312;11.060;2022-09-09T00:20:00;7.30;;;2.57;;
10902;SDS011;5504;47.312;11.060;2022-09-09T00:22:30;4.83;;;2.27;;
10902;SDS011;5504;47.312;11.060;2022-09-09T00:25:11;4.43;;;1.90;;
10902;SDS011;5504;47.312;11.060;2022-09-09T00:27:48;3.67;;;2.27;;
10902;SDS011;5504;47.312;11.060;2022-09-09T00:30:19;3.37;;;1.80;;
10902;SDS011;5504;47.312;11.060;2022-09-09T00:32:50;3.67;;;2.13;;
10902;SDS011;5504;47.312;11.060;2022-09-09T00:35:40;2.60;;;2.20;;
10902;SDS011;5504;47.312;11.060;2022-09-09T00:38:24;6.07;;;2.10;;
10902;SDS011;5504;47.312;11.060;2022-09-09T00:43:39;2.37;;;2.00;;
10902;SDS011;5504;47.312;11.060;2022-09-09T00:46:25;2.47;;;2.17;;
10902;SDS011;5504;47.312;11.060;2022-09-09T00:49:33;2.73;;;2.07;;
10902;SDS011;5504;47.312;11.060;2022-09-09T00:52:17;2.00;;;1.70;;
10902;SDS011;5504;47.312;11.060;2022-09-09T00:57:35;4.53;;;2.17;;
10902;SDS011;5504;47.312;11.060;2022-09-09T01:17:13;3.07;;;1.90;;
10902;SDS011;5504;47.312;11.060;2022-09-09T01:22:15;2.80;;;1.63;;
10902;SDS011;5504;47.312;11.060;2022-09-09T01:27:55;2.27;;;1.57;;
10902;SDS011;5504;47.312;11.060;2022-09-09T01:30:24;2.27;;;1.70;;
10902;SDS011;5504;47.312;11.060;2022-09-09T01:32:56;1.97;;;1.80;;
10902;SDS011;5504;47.312;11.060;2022-09-09T01:38:21;2.23;;;1.73;;
10902;SDS011;5504;47.312;11.060;2022-09-09T01:40:48;2.27;;;1.60;;
10902;SDS011;5504;47.312;11.060;2022-09-09T01:43:17;3.30;;;1.70;;
10902;SDS011;5504;47.312;11.060;2022-09-09T01:45:45;2.57;;;2.00;;
10902;SDS011;5504;47.312;11.060;2022-09-09T01:48:13;2.70;;;1.97;;
10902;SDS011;5504;47.312;11.060;2022-09-09T01:50:39;2.17;;;1.97;;
10902;SDS011;5504;47.312;11.060;2022-09-09T01:53:05;2.13;;;1.70;;
10902;SDS011;5504;47.312;11.060;2022-09-09T01:55:33;1.80;;;1.70;;
10902;SDS011;5504;47.312;11.060;2022-09-09T01:58:20;2.63;;;1.73;;
10902;SDS011;5504;47.312;11.060;2022-09-09T02:01:05;3.13;;;1.80;;
10902;SDS011;5504;47.312;11.060;2022-09-09T02:03:47;2.67;;;1.90;;
10902;SDS011;5504;47.312;11.060;2022-09-09T02:08:59;3.10;;;1.93;;
10902;SDS011;5504;47.312;11.060;2022-09-09T02:11:29;2.10;;;1.90;;
10902;SDS011;5504;47.312;11.060;2022-09-09T02:14:03;2.03;;;1.93;;
10902;SDS011;5504;47.312;11.060;2022-09-09T02:16:51;2.60;;;2.40;;
10902;SDS011;5504;47.312;11.060;2022-09-09T02:19:37;2.90;;;1.90;;
10902;SDS011;5504;47.312;11.060;2022-09-09T02:22:11;2.33;;;2.00;;
10902;SDS011;5504;47.312;11.060;2022-09-09T02:24:38;2.30;;;2.07;;
10902;SDS011;5504;47.312;11.060;2022-09-09T02:27:05;2.43;;;1.80;;
10902;SDS011;5504;47.312;11.060;2022-09-09T02:29:36;4.83;;;2.13;;
10902;SDS011;5504;47.312;11.060;2022-09-09T02:32:07;2.50;;;2.10;;
10902;SDS011;5504;47.312;11.060;2022-09-09T02:34:36;2.63;;;2.17;;
10902;SDS011;5504;47.312;11.060;2022-09-09T02:37:08;2.73;;;2.10;;
10902;SDS011;5504;47.312;11.060;2022-09-09T02:39:35;2.60;;;2.20;;
10902;SDS011;5504;47.312;11.060;2022-09-09T02:42:01;2.50;;;2.30;;
10902;SDS011;5504;47.312;11.060;2022-09-09T02:44:29;2.57;;;2.37;;
10902;SDS011;5504;47.312;11.060;2022-09-09T02:52:25;2.57;;;2.20;;
10902;SDS011;5504;47.312;11.060;2022-09-09T02:54:57;3.30;;;2.43;;
10902;SDS011;5504;47.312;11.060;2022-09-09T02:57:31;4.30;;;2.50;;
10902;SDS011;5504;47.312;11.060;2022-09-09T02:59:59;3.17;;;2.57;;
10902;SDS011;5504;47.312;11.060;2022-09-09T03:02:26;2.87;;;2.60;;
10902;SDS011;5504;47.312;11.060;2022-09-09T03:04:52;2.90;;;2.60;;
10902;SDS011;5504;47.312;11.060;2022-09-09T03:07:18;4.00;;;2.70;;
10902;SDS011;5504;47.312;11.060;2022-09-09T03:09:44;4.17;;;2.47;;
10902;SDS011;5504;47.312;11.060;2022-09-09T03:12:10;2.30;;;2.10;;
10902;SDS011;5504;47.312;11.060;2022-09-09T03:14:37;3.50;;;2.40;;
10902;SDS011;5504;47.312;11.060;2022-09-09T03:17:04;3.13;;;2.43;;
10902;SDS011;5504;47.312;11.060;2022-09-09T03:19:30;2.73;;;2.40;;
10902;SDS011;5504;47.312;11.060;2022-09-09T03:21:57;3.93;;;2.10;;
10902;SDS011;5504;47.312;11.060;2022-09-09T03:24:23;3.13;;;2.40;;
10902;SDS011;5504;47.312;11.060;2022-09-09T03:26:50;3.93;;;2.20;;
10902;SDS011;5504;47.312;11.060;2022-09-09T03:29:16;2.17;;;1.97;;
10902;SDS011;5504;47.312;11.060;2022-09-09T03:31:43;3.60;;;2.27;;
10902;SDS011;5504;47.312;11.060;2022-09-09T03:34:09;3.30;;;2.30;;
10902;SDS011;5504;47.312;11.060;2022-09-09T03:36:35;2.23;;;1.97;;
10902;SDS011;5504;47.312;11.060;2022-09-09T03:39:01;3.37;;;2.30;;
10902;SDS011;5504;47.312;11.060;2022-09-09T03:41:28;3.63;;;2.30;;
10902;SDS011;5504;47.312;11.060;2022-09-09T03:43:54;3.50;;;2.33;;
10902;SDS011;5504;47.312;11.060;2022-09-09T03:46:22;4.70;;;2.40;;
10902;SDS011;5504;47.312;11.060;2022-09-09T03:48:49;3.73;;;2.50;;
10902;SDS011;5504;47.312;11.060;2022-09-09T03:51:15;3.93;;;2.67;;
10902;SDS011;5504;47.312;11.060;2022-09-09T03:53:42;2.90;;;2.70;;
10902;SDS011;5504;47.312;11.060;2022-09-09T03:56:08;3.03;;;2.40;;
10902;SDS011;5504;47.312;11.060;2022-09-09T03:58:34;2.83;;;2.60;;
10902;SDS011;5504;47.312;11.060;2022-09-09T04:01:05;3.60;;;2.60;;
10902;SDS011;5504;47.312;11.060;2022-09-09T04:03:33;3.30;;;2.50;;
10902;SDS011;5504;47.312;11.060;2022-09-09T04:06:00;2.97;;;2.50;;
10902;SDS011;5504;47.312;11.060;2022-09-09T04:08:28;3.40;;;3.10;;
10902;SDS011;5504;47.312;11.060;2022-09-09T04:10:56;6.13;;;3.30;;
10902;SDS011;5504;47.312;11.060;2022-09-09T04:13:23;3.67;;;3.10;;
10902;SDS011;5504;47.312;11.060;2022-09-09T04:15:50;3.20;;;2.90;;
10902;SDS011;5504;47.312;11.060;2022-09-09T04:18:18;2.90;;;2.70;;
10902;SDS011;5504;47.312;11.060;2022-09-09T04:20:45;3.40;;;3.10;;
10902;SDS011;5504;47.312;11.060;2022-09-09T04:23:15;3.30;;;3.00;;
10902;SDS011;5504;47.312;11.060;2022-09-09T04:25:46;3.30;;;2.67;;
10902;SDS011;5504;47.312;11.060;2022-09-09T04:28:14;2.47;;;2.27;;
10902;SDS011;5504;47.312;11.060;2022-09-09T04:30:40;3.50;;;3.20;;
10902;SDS011;5504;47.312;11.060;2022-09-09T04:33:07;3.60;;;3.30;;
10902;SDS011;5504;47.312;11.060;2022-09-09T04:35:33;3.97;;;3.30;;
10902;SDS011;5504;47.312;11.060;2022-09-09T04:37:59;4.43;;;3.60;;
10902;SDS011;5504;47.312;11.060;2022-09-09T04:40:24;4.77;;;3.20;;
10902;SDS011;5504;47.312;11.060;2022-09-09T04:42:50;3.07;;;2.87;;
10902;SDS011;5504;47.312;11.060;2022-09-09T04:45:16;3.30;;;3.00;;
10902;SDS011;5504;47.312;11.060;2022-09-09T04:47:43;3.73;;;3.30;;
10902;SDS011;5504;47.312;11.060;2022-09-09T04:50:09;5.40;;;3.20;;
10902;SDS011;5504;47.312;11.060;2022-09-09T04:52:35;3.30;;;3.00;;
10902;SDS011;5504;47.312;11.060;2022-09-09T04:55:01;3.00;;;2.80;;
10902;SDS011;5504;47.312;11.060;2022-09-09T04:57:27;3.23;;;2.93;;
10902;SDS011;5504;47.312;11.060;2022-09-09T04:59:53;3.87;;;3.10;;
10902;SDS011;5504;47.312;11.060;2022-09-09T05:02:19;2.83;;;2.63;;
10902;SDS011;5504;47.312;11.060;2022-09-09T05:04:45;2.90;;;2.60;;
10902;SDS011;5504;47.312;11.060;2022-09-09T05:07:11;3.70;;;2.60;;
10902;SDS011;5504;47.312;11.060;2022-09-09T05:09:36;2.70;;;2.50;;
10902;SDS011;5504;47.312;11.060;2022-09-09T05:12:02;2.90;;;2.60;;
10902;SDS011;5504;47.312;11.060;2022-09-09T05:14:28;2.43;;;2.23;;
10902;SDS011;5504;47.312;11.060;2022-09-09T05:16:55;2.63;;;2.30;;
10902;SDS011;5504;47.312;11.060;2022-09-09T05:19:21;1.90;;;1.70;;
10902;SDS011;5504;47.312;11.060;2022-09-09T05:21:47;2.33;;;2.00;;
10902;SDS011;5504;47.312;11.060;2022-09-09T05:24:12;2.43;;;1.90;;
10902;SDS011;5504;47.312;11.060;2022-09-09T05:26:38;2.00;;;1.77;;
10902;SDS011;5504;47.312;11.060;2022-09-09T05:29:04;4.70;;;4.27;;
10902;SDS011;5504;47.312;11.060;2022-09-09T05:31:31;3.00;;;1.80;;
10902;SDS011;5504;47.312;11.060;2022-09-09T05:33:57;1.80;;;1.70;;
10902;SDS011;5504;47.312;11.060;2022-09-09T05:36:24;1.83;;;1.50;;
10902;SDS011;5504;47.312;11.060;2022-09-09T05:38:49;3.07;;;1.83;;
10902;SDS011;5504;47.312;11.060;2022-09-09T05:41:16;3.20;;;1.60;;
10902;SDS011;5504;47.312;11.060;2022-09-09T05:43:43;2.43;;;2.10;;
10902;SDS011;5504;47.312;11.060;2022-09-09T05:46:13;1.70;;;1.60;;
10902;SDS011;5504;47.312;11.060;2022-09-09T05:48:41;2.07;;;1.83;;
10902;SDS011;5504;47.312;11.060;2022-09-09T05:51:10;2.07;;;1.80;;
10902;SDS011;5504;47.312;11.060;2022-09-09T05:53:43;2.00;;;1.80;;
10902;SDS011;5504;47.312;11.060;2022-09-09T05:56:11;3.23;;;1.90;;
10902;SDS011;5504;47.312;11.060;2022-09-09T05:58:40;2.00;;;1.80;;
10902;SDS011;5504;47.312;11.060;2022-09-09T06:01:13;2.10;;;1.90;;
10902;SDS011;5504;47.312;11.060;2022-09-09T06:03:41;2.17;;;1.80;;
10902;SDS011;5504;47.312;11.060;2022-09-09T06:06:09;2.43;;;2.00;;
10902;SDS011;5504;47.312;11.060;2022-09-09T06:08:37;2.93;;;2.00;;
10902;SDS011;5504;47.312;11.060;2022-09-09T06:11:05;2.60;;;2.07;;
10902;SDS011;5504;47.312;11.060;2022-09-09T06:13:36;2.20;;;1.90;;
10902;SDS011;5504;47.312;11.060;2022-09-09T06:16:14;2.63;;;2.17;;
10902;SDS011;5504;47.312;11.060;2022-09-09T06:18:43;3.83;;;2.20;;
10902;SDS011;5504;47.312;11.060;2022-09-09T06:21:15;3.13;;;2.00;;
10902;SDS011;5504;47.312;11.060;2022-09-09T06:23:45;3.00;;;2.10;;
10902;SDS011;5504;47.312;11.060;2022-09-09T06:26:16;1.93;;;1.80;;
10902;SDS011;5504;47.312;11.060;2022-09-09T06:28:44;2.67;;;1.90;;
10902;SDS011;5504;47.312;11.060;2022-09-09T06:31:15;2.70;;;1.90;;
10902;SDS011;5504;47.312;11.060;2022-09-09T06:33:43;2.30;;;2.10;;
10902;SDS011;5504;47.312;11.060;2022-09-09T06:39:03;2.67;;;2.47;;
10902;SDS011;5504;47.312;11.060;2022-09-09T06:41:31;2.70;;;2.50;;
10902;SDS011;5504;47.312;11.060;2022-09-09T06:43:58;3.00;;;2.40;;
10902;SDS011;5504;47.312;11.060;2022-09-09T06:46:27;2.73;;;2.53;;
10902;SDS011;5504;47.312;11.060;2022-09-09T06:48:56;4.30;;;2.30;;
10902;SDS011;5504;47.312;11.060;2022-09-09T06:51:25;2.40;;;2.20;;
10902;SDS011;5504;47.312;11.060;2022-09-09T06:53:53;2.50;;;1.97;;
10902;SDS011;5504;47.312;11.060;2022-09-09T06:56:22;2.10;;;1.87;;
10902;SDS011;5504;47.312;11.060;2022-09-09T06:58:50;3.10;;;1.93;;
10902;SDS011;5504;47.312;11.060;2022-09-09T07:01:18;2.23;;;2.03;;
10902;SDS011;5504;47.312;11.060;2022-09-09T07:03:46;1.90;;;1.80;;
10902;SDS011;5504;47.312;11.060;2022-09-09T07:06:18;2.93;;;2.20;;
10902;SDS011;5504;47.312;11.060;2022-09-09T07:08:54;2.77;;;2.53;;
10902;SDS011;5504;47.312;11.060;2022-09-09T07:11:23;3.63;;;3.00;;
10902;SDS011;5504;47.312;11.060;2022-09-09T07:13:51;3.03;;;2.60;;
10902;SDS011;5504;47.312;11.060;2022-09-09T07:16:19;3.93;;;2.50;;
10902;SDS011;5504;47.312;11.060;2022-09-09T07:18:46;2.70;;;2.23;;
10902;SDS011;5504;47.312;11.060;2022-09-09T07:21:13;2.93;;;2.20;;
10902;SDS011;5504;47.312;11.060;2022-09-09T07:23:40;3.23;;;2.30;;
10902;SDS011;5504;47.312;11.060;2022-09-09T07:26:13;2.33;;;2.10;;
10902;SDS011;5504;47.312;11.060;2022-09-09T07:28:41;2.90;;;1.90;;
10902;SDS011;5504;47.312;11.060;2022-09-09T07:31:12;2.40;;;2.20;;
10902;SDS011;5504;47.312;11.060;2022-09-09T07:33:42;2.43;;;2.17;;
10902;SDS011;5504;47.312;11.060;2022-09-09T07:38:38;3.00;;;2.30;;
10902;SDS011;5504;47.312;11.060;2022-09-09T07:41:08;2.80;;;2.20;;
10902;SDS011;5504;47.312;11.060;2022-09-09T07:43:39;2.93;;;2.23;;
10902;SDS011;5504;47.312;11.060;2022-09-09T07:46:06;2.50;;;2.30;;
10902;SDS011;5504;47.312;11.060;2022-09-09T07:48:32;3.23;;;2.30;;
10902;SDS011;5504;47.312;11.060;2022-09-09T07:51:03;2.60;;;2.30;;
10902;SDS011;5504;47.312;11.060;2022-09-09T07:53:33;2.60;;;2.40;;
10902;SDS011;5504;47.312;11.060;2022-09-09T07:56:04;3.00;;;2.23;;
10902;SDS011;5504;47.312;11.060;2022-09-09T07:58:38;2.43;;;2.23;;
10902;SDS011;5504;47.312;11.060;2022-09-09T08:01:15;3.23;;;2.20;;
10902;SDS011;5504;47.312;11.060;2022-09-09T08:04:15;3.50;;;2.30;;
10902;SDS011;5504;47.312;11.060;2022-09-09T08:06:50;2.60;;;2.40;;
10902;SDS011;5504;47.312;11.060;2022-09-09T08:09:20;2.50;;;2.30;;
10902;SDS011;5504;47.312;11.060;2022-09-09T08:11:49;2.50;;;2.30;;
10902;SDS011;5504;47.312;11.060;2022-09-09T08:14:16;3.43;;;2.73;;
10902;SDS011;5504;47.312;11.060;2022-09-09T08:16:43;3.17;;;2.87;;
10902;SDS011;5504;47.312;11.060;2022-09-09T08:19:10;3.67;;;3.10;;
10902;SDS011;5504;47.312;11.060;2022-09-09T08:21:37;4.77;;;3.90;;
10902;SDS011;5504;47.312;11.060;2022-09-09T08:24:05;3.17;;;2.87;;
10902;SDS011;5504;47.312;11.060;2022-09-09T08:26:33;2.80;;;2.60;;
10902;SDS011;5504;47.312;11.060;2022-09-09T08:29:04;3.30;;;3.00;;
10902;SDS011;5504;47.312;11.060;2022-09-09T08:31:35;2.90;;;2.70;;
10902;SDS011;5504;47.312;11.060;2022-09-09T08:34:03;2.70;;;2.50;;
10902;SDS011;5504;47.312;11.060;2022-09-09T08:36:32;3.60;;;2.70;;
10902;SDS011;5504;47.312;11.060;2022-09-09T08:39:05;2.80;;;2.60;;
10902;SDS011;5504;47.312;11.060;2022-09-09T08:41:38;3.00;;;2.70;;
10902;SDS011;5504;47.312;11.060;2022-09-09T08:50:34;3.63;;;2.60;;
10902;SDS011;5504;47.312;11.060;2022-09-09T08:55:45;1.90;;;1.80;;
10902;SDS011;5504;47.312;11.060;2022-09-09T09:00:42;1.87;;;1.77;;
10902;SDS011;5504;47.312;11.060;2022-09-09T09:09:08;2.43;;;2.10;;
10902;SDS011;5504;47.312;11.060;2022-09-09T09:11:44;2.63;;;2.20;;
10902;SDS011;5504;47.312;11.060;2022-09-09T09:14:26;2.77;;;2.50;;
10902;SDS011;5504;47.312;11.060;2022-09-09T09:16:59;3.40;;;2.57;;
10902;SDS011;5504;47.312;11.060;2022-09-09T09:19:28;1.90;;;1.80;;
10902;SDS011;5504;47.312;11.060;2022-09-09T09:25:23;2.50;;;2.10;;
10902;SDS011;5504;47.312;11.060;2022-09-09T09:30:21;2.23;;;2.03;;
10902;SDS011;5504;47.312;11.060;2022-09-09T09:32:56;2.10;;;2.00;;
10902;SDS011;5504;47.312;11.060;2022-09-09T09:35:23;2.13;;;1.93;;
10902;SDS011;5504;47.312;11.060;2022-09-09T09:37:49;1.67;;;1.57;;
10902;SDS011;5504;47.312;11.060;2022-09-09T09:40:17;1.70;;;1.60;;
10902;SDS011;5504;47.312;11.060;2022-09-09T09:42:49;2.07;;;1.60;;
10902;SDS011;5504;47.312;11.060;2022-09-09T09:45:41;1.70;;;1.60;;
10902;SDS011;5504;47.312;11.060;2022-09-09T09:48:10;1.93;;;1.80;;
10902;SDS011;5504;47.312;11.060;2022-09-09T09:50:47;1.93;;;1.70;;
10902;SDS011;5504;47.312;11.060;2022-09-09T09:53:29;1.77;;;1.63;;
10902;SDS011;5504;47.312;11.060;2022-09-09T09:58:30;2.17;;;1.97;;
10902;SDS011;5504;47.312;11.060;2022-09-09T10:01:25;2.33;;;1.77;;
10902;SDS011;5504;47.312;11.060;2022-09-09T10:04:02;2.83;;;1.50;;
10902;SDS011;5504;47.312;11.060;2022-09-09T10:06:40;1.80;;;1.70;;
10902;SDS011;5504;47.312;11.060;2022-09-09T10:09:22;2.10;;;1.70;;
10902;SDS011;5504;47.312;11.060;2022-09-09T10:12:08;1.73;;;1.63;;
10902;SDS011;5504;47.312;11.060;2022-09-09T10:17:44;2.57;;;2.33;;
10902;SDS011;5504;47.312;11.060;2022-09-09T10:20:29;2.77;;;2.10;;
10902;SDS011;5504;47.312;11.060;2022-09-09T10:25:49;2.77;;;1.73;;
10902;SDS011;5504;47.312;11.060;2022-09-09T10:31:24;1.33;;;1.23;;
10902;SDS011;5504;47.312;11.060;2022-09-09T10:36:48;1.30;;;1.20;;
10902;SDS011;5504;47.312;11.060;2022-09-09T10:53:00;1.75;;;1.40;;
10902;SDS011;5504;47.312;11.060;2022-09-09T10:55:38;2.15;;;1.60;;
10902;SDS011;5504;47.312;11.060;2022-09-09T10:58:13;2.60;;;2.00;;
10902;SDS011;5504;47.312;11.060;2022-09-09T11:00:45;1.77;;;1.60;;
10902;SDS011;5504;47.312;11.060;2022-09-09T11:03:17;2.50;;;1.40;;
10902;SDS011;5504;47.312;11.060;2022-09-09T11:05:47;1.38;;;1.27;;
10902;SDS011;5504;47.312;11.060;2022-09-09T11:08:18;2.42;;;1.60;;
10902;SDS011;5504;47.312;11.060;2022-09-09T11:10:53;1.75;;;1.60;;
10902;SDS011;5504;47.312;11.060;2022-09-09T11:27:27;0.90;;;0.77;;
10902;SDS011;5504;47.312;11.060;2022-09-09T11:30:22;1.20;;;1.10;;
10902;SDS011;5504;47.312;11.060;2022-09-09T11:40:59;2.85;;;1.17;;
10902;SDS011;5504;47.312;11.060;2022-09-09T11:43:30;2.00;;;1.30;;
10902;SDS011;5504;47.312;11.060;2022-09-09T11:45:59;1.38;;;1.20;;
10902;SDS011;5504;47.312;11.060;2022-09-09T11:48:37;1.45;;;1.33;;
10902;SDS011;5504;47.312;11.060;2022-09-09T11:51:12;1.40;;;1.30;;
10902;SDS011;5504;47.312;11.060;2022-09-09T11:54:00;2.03;;;1.20;;
10902;SDS011;5504;47.312;11.060;2022-09-09T11:56:46;3.08;;;1.27;;
10902;SDS011;5504;47.312;11.060;2022-09-09T11:59:19;1.65;;;1.00;;
10902;SDS011;5504;47.312;11.060;2022-09-09T12:02:12;1.02;;;1.00;;
10902;SDS011;5504;47.312;11.060;2022-09-09T12:10:03;1.67;;;1.20;;
10902;SDS011;5504;47.312;11.060;2022-09-09T12:12:44;1.23;;;1.13;;
10902;SDS011;5504;47.312;11.060;2022-09-09T12:17:42;1.67;;;1.27;;
10902;SDS011;5504;47.312;11.060;2022-09-09T12:30:28;2.00;;;0.93;;
10902;SDS011;5504;47.312;11.060;2022-09-09T12:33:01;1.23;;;1.10;;
10902;SDS011;5504;47.312;11.060;2022-09-09T12:35:33;1.10;;;1.00;;
10902;SDS011;5504;47.312;11.060;2022-09-09T12:38:02;1.60;;;1.00;;
10902;SDS011;5504;47.312;11.060;2022-09-09T12:40:33;1.60;;;1.10;;
10902;SDS011;5504;47.312;11.060;2022-09-09T12:43:17;1.73;;;1.20;;
10902;SDS011;5504;47.312;11.060;2022-09-09T12:45:45;1.20;;;1.10;;
10902;SDS011;5504;47.312;11.060;2022-09-09T12:48:11;2.22;;;1.20;;
10902;SDS011;5504;47.312;11.060;2022-09-09T12:50:44;1.20;;;1.10;;
10902;SDS011;5504;47.312;11.060;2022-09-09T12:53:23;2.92;;;1.20;;
10902;SDS011;5504;47.312;11.060;2022-09-09T12:56:18;3.00;;;1.15;;
10902;SDS011;5504;47.312;11.060;2022-09-09T12:58:48;1.75;;;0.93;;
10902;SDS011;5504;47.312;11.060;2022-09-09T13:01:35;1.27;;;0.90;;
10902;SDS011;5504;47.312;11.060;2022-09-09T13:04:00;2.33;;;1.10;;
10902;SDS011;5504;47.312;11.060;2022-09-09T13:06:30;3.05;;;1.20;;
10902;SDS011;5504;47.312;11.060;2022-09-09T13:08:58;1.10;;;1.00;;
10902;SDS011;5504;47.312;11.060;2022-09-09T13:11:26;1.33;;;0.98;;
10902;SDS011;5504;47.312;11.060;2022-09-09T13:13:56;2.10;;;1.40;;
10902;SDS011;5504;47.312;11.060;2022-09-09T13:16:27;5.40;;;3.60;;
10902;SDS011;5504;47.312;11.060;2022-09-09T13:18:56;1.40;;;1.30;;
10902;SDS011;5504;47.312;11.060;2022-09-09T13:21:36;1.13;;;1.02;;
10902;SDS011;5504;47.312;11.060;2022-09-09T13:24:07;1.38;;;1.25;;
10902;SDS011;5504;47.312;11.060;2022-09-09T13:27:00;1.10;;;1.00;;
10902;SDS011;5504;47.312;11.060;2022-09-09T13:29:28;1.60;;;1.10;;
10902;SDS011;5504;47.312;11.060;2022-09-09T13:32:03;1.85;;;1.00;;
10902;SDS011;5504;47.312;11.060;2022-09-09T13:34:49;3.42;;;1.15;;
10902;SDS011;5504;47.312;11.060;2022-09-09T13:37:20;1.40;;;1.17;;
10902;SDS011;5504;47.312;11.060;2022-09-09T13:40:06;1.50;;;0.90;;
10902;SDS011;5504;47.312;11.060;2022-09-09T13:42:42;1.47;;;1.30;;
10902;SDS011;5504;47.312;11.060;2022-09-09T13:45:20;1.17;;;1.10;;
10902;SDS011;5504;47.312;11.060;2022-09-09T13:47:48;1.37;;;1.10;;
10902;SDS011;5504;47.312;11.060;2022-09-09T13:50:29;1.30;;;1.10;;
10902;SDS011;5504;47.312;11.060;2022-09-09T13:52:56;1.30;;;1.20;;
10902;SDS011;5504;47.312;11.060;2022-09-09T13:55:24;2.10;;;1.13;;
10902;SDS011;5504;47.312;11.060;2022-09-09T14:00:17;1.33;;;1.20;;
10902;SDS011;5504;47.312;11.060;2022-09-09T14:02:43;1.53;;;1.30;;
10902;SDS011;5504;47.312;11.060;2022-09-09T14:05:09;1.63;;;1.20;;
10902;SDS011;5504;47.312;11.060;2022-09-09T14:07:36;1.20;;;1.10;;
10902;SDS011;5504;47.312;11.060;2022-09-09T14:10:05;1.27;;;1.10;;
10902;SDS011;5504;47.312;11.060;2022-09-09T14:12:31;1.60;;;1.50;;
10902;SDS011;5504;47.312;11.060;2022-09-09T14:14:57;1.17;;;1.03;;
10902;SDS011;5504;47.312;11.060;2022-09-09T14:17:24;1.33;;;1.23;;
10902;SDS011;5504;47.312;11.060;2022-09-09T14:19:52;1.50;;;1.40;;
10902;SDS011;5504;47.312;11.060;2022-09-09T14:22:18;1.63;;;1.23;;
10902;SDS011;5504;47.312;11.060;2022-09-09T14:24:43;1.47;;;1.00;;
10902;SDS011;5504;47.312;11.060;2022-09-09T14:27:09;1.60;;;1.50;;
10902;SDS011;5504;47.312;11.060;2022-09-09T14:29:35;1.13;;;1.00;;
10902;SDS011;5504;47.312;11.060;2022-09-09T14:32:00;3.03;;;2.80;;
10902;SDS011;5504;47.312;11.060;2022-09-09T14:34:26;1.50;;;1.40;;
10902;SDS011;5504;47.312;11.060;2022-09-09T14:36:52;1.43;;;1.20;;
10902;SDS011;5504;47.312;11.060;2022-09-09T14:39:18;1.43;;;1.33;;
10902;SDS011;5504;47.312;11.060;2022-09-09T14:41:43;3.10;;;1.10;;
10902;SDS011;5504;47.312;11.060;2022-09-09T14:44:10;1.20;;;1.10;;
10902;SDS011;5504;47.312;11.060;2022-09-09T14:46:36;2.30;;;1.30;;
10902;SDS011;5504;47.312;11.060;2022-09-09T14:49:01;1.37;;;1.27;;
10902;SDS011;5504;47.312;11.060;2022-09-09T14:51:27;3.13;;;2.77;;
10902;SDS011;5504;47.312;11.060;2022-09-09T14:53:54;3.47;;;2.47;;
10902;SDS011;5504;47.312;11.060;2022-09-09T14:56:23;2.40;;;2.20;;
10902;SDS011;5504;47.312;11.060;2022-09-09T14:58:54;1.63;;;1.40;;
10902;SDS011;5504;47.312;11.060;2022-09-09T15:01:21;2.43;;;1.40;;
10902;SDS011;5504;47.312;11.060;2022-09-09T15:03:51;2.33;;;1.60;;
10902;SDS011;5504;47.312;11.060;2022-09-09T15:06:19;1.50;;;1.37;;
10902;SDS011;5504;47.312;11.060;2022-09-09T15:08:46;1.30;;;1.20;;
10902;SDS011;5504;47.312;11.060;2022-09-09T15:11:14;2.63;;;2.23;;
10902;SDS011;5504;47.312;11.060;2022-09-09T15:13:41;2.50;;;2.30;;
10902;SDS011;5504;47.312;11.060;2022-09-09T15:16:12;7.77;;;7.07;;
10902;SDS011;5504;47.312;11.060;2022-09-09T15:18:40;2.67;;;2.30;;
10902;SDS011;5504;47.312;11.060;2022-09-09T15:21:10;2.67;;;1.60;;
10902;SDS011;5504;47.312;11.060;2022-09-09T15:23:46;2.47;;;2.03;;
10902;SDS011;5504;47.312;11.060;2022-09-09T15:26:13;2.53;;;1.90;;
10902;SDS011;5504;47.312;11.060;2022-09-09T15:28:40;1.60;;;1.40;;
10902;SDS011;5504;47.312;11.060;2022-09-09T15:31:13;1.67;;;1.40;;
10902;SDS011;5504;47.312;11.060;2022-09-09T15:33:46;2.17;;;1.25;;
10902;SDS011;5504;47.312;11.060;2022-09-09T15:38:41;1.90;;;1.27;;
10902;SDS011;5504;47.312;11.060;2022-09-09T15:41:07;1.65;;;1.33;;
10902;SDS011;5504;47.312;11.060;2022-09-09T15:43:33;2.67;;;1.10;;
10902;SDS011;5504;47.312;11.060;2022-09-09T15:45:59;1.20;;;1.10;;
10902;SDS011;5504;47.312;11.060;2022-09-09T15:48:58;3.60;;;2.80;;
10902;SDS011;5504;47.312;11.060;2022-09-09T15:51:34;1.70;;;1.07;;
10902;SDS011;5504;47.312;11.060;2022-09-09T15:54:00;1.20;;;0.90;;
10902;SDS011;5504;47.312;11.060;2022-09-09T15:56:26;1.77;;;1.57;;
10902;SDS011;5504;47.312;11.060;2022-09-09T15:58:54;0.95;;;0.90;;
10902;SDS011;5504;47.312;11.060;2022-09-09T16:01:20;1.17;;;0.90;;
10902;SDS011;5504;47.312;11.060;2022-09-09T16:03:46;1.20;;;1.10;;
10902;SDS011;5504;47.312;11.060;2022-09-09T16:06:12;1.83;;;1.20;;
10902;SDS011;5504;47.312;11.060;2022-09-09T16:08:40;1.47;;;1.33;;
10902;SDS011;5504;47.312;11.060;2022-09-09T16:11:15;1.30;;;0.80;;
10902;SDS011;5504;47.312;11.060;2022-09-09T16:13:45;1.77;;;0.90;;
10902;SDS011;5504;47.312;11.060;2022-09-09T16:16:14;1.10;;;1.00;;
10902;SDS011;5504;47.312;11.060;2022-09-09T16:18:44;1.13;;;1.10;;
10902;SDS011;5504;47.312;11.060;2022-09-09T16:21:15;1.33;;;1.00;;
10902;SDS011;5504;47.312;11.060;2022-09-09T16:23:54;2.13;;;1.30;;
10902;SDS011;5504;47.312;11.060;2022-09-09T16:26:20;1.20;;;1.00;;
10902;SDS011;5504;47.312;11.060;2022-09-09T16:28:46;7.03;;;5.80;;
10902;SDS011;5504;47.312;11.060;2022-09-09T16:31:16;2.97;;;2.33;;
10902;SDS011;5504;47.312;11.060;2022-09-09T16:33:43;1.43;;;1.33;;
10902;SDS011;5504;47.312;11.060;2022-09-09T16:36:11;3.00;;;1.30;;
10902;SDS011;5504;47.312;11.060;2022-09-09T16:38:39;2.00;;;1.23;;
10902;SDS011;5504;47.312;11.060;2022-09-09T16:41:05;2.30;;;1.60;;
10902;SDS011;5504;47.312;11.060;2022-09-09T16:43:32;3.23;;;1.43;;
10902;SDS011;5504;47.312;11.060;2022-09-09T16:45:59;2.53;;;1.83;;
10902;SDS011;5504;47.312;11.060;2022-09-09T16:48:31;1.47;;;1.37;;
10902;SDS011;5504;47.312;11.060;2022-09-09T16:51:01;2.27;;;1.40;;
10902;SDS011;5504;47.312;11.060;2022-09-09T16:53:30;1.60;;;1.40;;
10902;SDS011;5504;47.312;11.060;2022-09-09T16:55:57;1.23;;;1.03;;
10902;SDS011;5504;47.312;11.060;2022-09-09T16:58:23;1.10;;;1.00;;
10902;SDS011;5504;47.312;11.060;2022-09-09T17:00:49;1.80;;;0.90;;
10902;SDS011;5504;47.312;11.060;2022-09-09T17:03:16;1.40;;;1.20;;
10902;SDS011;5504;47.312;11.060;2022-09-09T17:05:42;1.20;;;1.10;;
10902;SDS011;5504;47.312;11.060;2022-09-09T17:08:09;1.00;;;1.00;;
10902;SDS011;5504;47.312;11.060;2022-09-09T17:10:39;1.77;;;1.10;;
10902;SDS011;5504;47.312;11.060;2022-09-09T17:13:07;0.90;;;0.90;;
10902;SDS011;5504;47.312;11.060;2022-09-09T17:15:33;1.90;;;1.10;;
10902;SDS011;5504;47.312;11.060;2022-09-09T17:18:05;1.43;;;1.00;;
10902;SDS011;5504;47.312;11.060;2022-09-09T17:20:30;1.90;;;1.10;;
10902;SDS011;5504;47.312;11.060;2022-09-09T17:22:59;1.70;;;1.10;;
10902;SDS011;5504;47.312;11.060;2022-09-09T17:25:25;2.20;;;1.20;;
10902;SDS011;5504;47.312;11.060;2022-09-09T17:27:51;1.57;;;1.43;;
10902;SDS011;5504;47.312;11.060;2022-09-09T17:30:17;1.50;;;1.30;;
10902;SDS011;5504;47.312;11.060;2022-09-09T17:32:43;1.77;;;1.50;;
10902;SDS011;5504;47.312;11.060;2022-09-09T17:35:09;2.10;;;1.30;;
10902;SDS011;5504;47.312;11.060;2022-09-09T17:37:35;2.67;;;1.20;;
10902;SDS011;5504;47.312;11.060;2022-09-09T17:40:01;2.23;;;1.50;;
10902;SDS011;5504;47.312;11.060;2022-09-09T17:42:27;1.80;;;1.40;;